createdAt,value
2023-05-04T00:00:59.732Z,97524.59
2023-05-04T00:04:01.887Z,97519.63
2023-05-04T00:07:03.655Z,97520.47
2023-05-04T00:10:05.919Z,97524.44
2023-05-04T00:13:07.668Z,97523.47
2023-05-04T00:16:10.912Z,97520.50
2023-05-04T00:19:13.138Z,97514.22
2023-05-04T00:22:14.581Z,97518.84
2023-05-04T00:25:16.582Z,97513.25
2023-05-04T00:28:18.053Z,97511.28
2023-05-04T00:31:19.723Z,97508.28
2023-05-04T00:34:21.655Z,97511.09
2023-05-04T00:37:23.385Z,97509.94
2023-05-04T00:40:25.494Z,97507.13
2023-05-04T00:43:27.065Z,97511.25
2023-05-04T00:46:28.601Z,97511.75
2023-05-04T00:49:30.126Z,97503.34
2023-05-04T00:52:31.790Z,97502.34
2023-05-04T00:55:34.225Z,97497.38
2023-05-04T00:58:35.816Z,97503.13
2023-05-04T01:01:37.501Z,97492.09
2023-05-04T01:04:39.405Z,97496.03
2023-05-04T01:08:02.167Z,97493.91
2023-05-04T01:11:27.041Z,97492.44
2023-05-04T01:14:30.220Z,97489.28
2023-05-04T01:17:31.757Z,97487.81
2023-05-04T01:20:33.650Z,97490.94
2023-05-04T01:23:35.669Z,97492.09
2023-05-04T01:26:43.278Z,97491.75
2023-05-04T01:29:47.848Z,97496.69
2023-05-04T01:32:51.246Z,97497.19
2023-05-04T01:35:52.840Z,97497.03
2023-05-04T01:38:55.358Z,97497.84
2023-05-04T01:41:57.167Z,97502.28
2023-05-04T01:44:58.722Z,97502.59
2023-05-04T01:48:16.875Z,97500.59
2023-05-04T01:51:34.829Z,97494.63
2023-05-04T01:54:36.406Z,97492.25
2023-05-04T01:57:38.841Z,97495.38
2023-05-04T02:00:40.772Z,97492.88
2023-05-04T02:03:42.520Z,97487.94
2023-05-04T02:06:44.731Z,97493.53
2023-05-04T02:09:46.222Z,97484.75
2023-05-04T02:12:47.878Z,97485.13
2023-05-04T02:15:49.425Z,97486.91
2023-05-04T02:18:52.320Z,97495.66
2023-05-04T02:21:53.809Z,97493.19
2023-05-04T02:24:56.593Z,97492.34
2023-05-04T02:27:58.062Z,97495.47
2023-05-04T02:30:59.535Z,97482.78
2023-05-04T02:34:01.803Z,97487.78
2023-05-04T02:37:07.207Z,97493.56
2023-05-04T02:40:10.308Z,97483.31
2023-05-04T02:43:11.857Z,97490.25
2023-05-04T02:46:13.828Z,97478.50
2023-05-04T02:49:15.376Z,97488.69
2023-05-04T02:52:16.792Z,97485.03
2023-05-04T02:55:18.433Z,97489.31
2023-05-04T02:58:19.872Z,97481.22
2023-05-04T03:01:21.502Z,97479.41
2023-05-04T03:04:23.111Z,97477.41
2023-05-04T03:07:26.175Z,97476.84
2023-05-04T03:10:27.652Z,97475.38
2023-05-04T03:13:29.090Z,97472.81
2023-05-04T03:16:30.788Z,97470.50
2023-05-04T03:19:32.330Z,97464.88
2023-05-04T03:22:33.865Z,97470.31
2023-05-04T03:25:36.157Z,97460.59
2023-05-04T03:28:38.181Z,97469.19
2023-05-04T03:31:40.731Z,97460.06
2023-05-04T03:34:42.791Z,97469.47
2023-05-04T03:37:44.484Z,97454.19
2023-05-04T03:40:46.047Z,97459.31
2023-05-04T03:43:48.595Z,97463.91
2023-05-04T03:46:50.105Z,97453.97
2023-05-04T03:49:51.843Z,97464.00
2023-05-04T03:52:53.419Z,97455.91
2023-05-04T03:55:57.453Z,97455.91
2023-05-04T03:58:59.282Z,97455.22
2023-05-04T04:02:04.813Z,97462.78
2023-05-04T04:05:07.057Z,97461.09
2023-05-04T04:08:10.444Z,97460.31
2023-05-04T04:11:12.112Z,97459.56
2023-05-04T04:14:13.543Z,97460.25
2023-05-04T04:17:15.238Z,97468.44
2023-05-04T04:20:16.962Z,97460.91
2023-05-04T04:23:19.323Z,97448.41
2023-05-04T04:26:21.609Z,97462.56
2023-05-04T04:29:23.189Z,97460.91
2023-05-04T04:32:24.740Z,97457.13
2023-05-04T04:35:27.495Z,97465.69
2023-05-04T04:38:29.031Z,97465.63
2023-05-04T04:41:30.622Z,97466.13
2023-05-04T04:44:32.084Z,97463.31
2023-05-04T04:47:33.930Z,97469.16
2023-05-04T04:50:38.608Z,97476.91
2023-05-04T04:53:40.205Z,97472.66
2023-05-04T04:56:41.778Z,97468.88
2023-05-04T04:59:43.333Z,97464.47
2023-05-04T05:02:45.652Z,97469.59
2023-05-04T05:05:47.171Z,97471.06
2023-05-04T05:08:49.782Z,97466.50
2023-05-04T05:11:51.272Z,97467.22
2023-05-04T05:14:52.728Z,97458.00
2023-05-04T05:17:54.360Z,97460.19
2023-05-04T05:20:56.515Z,97465.34
2023-05-04T05:23:58.044Z,97471.63
2023-05-04T05:27:00.348Z,97477.75
2023-05-04T05:30:03.322Z,97471.34
2023-05-04T05:33:05.698Z,97469.03
2023-05-04T05:36:07.508Z,97475.44
2023-05-04T05:39:08.979Z,97478.88
2023-05-04T05:42:11.263Z,97487.00
2023-05-04T05:45:12.829Z,97482.00
2023-05-04T05:48:14.446Z,97482.13
2023-05-04T05:51:16.422Z,97477.50
2023-05-04T05:54:17.939Z,97482.56
2023-05-04T05:57:20.641Z,97488.19
2023-05-04T06:00:22.302Z,97479.69
2023-05-04T06:03:24.027Z,97484.47
2023-05-04T06:06:25.766Z,97481.25
2023-05-04T06:09:27.867Z,97479.84
2023-05-04T06:12:29.350Z,97481.88
2023-05-04T06:15:30.958Z,97477.38
2023-05-04T06:18:32.881Z,97482.16
2023-05-04T06:21:34.386Z,97472.47
2023-05-04T06:24:35.815Z,97472.31
2023-05-04T06:27:37.400Z,97467.13
2023-05-04T06:30:38.881Z,97463.50
2023-05-04T06:33:40.474Z,97460.03
2023-05-04T06:36:42.272Z,97454.84
2023-05-04T06:39:43.723Z,97449.97
2023-05-04T06:42:45.223Z,97434.19
2023-05-04T06:45:46.758Z,97436.81
2023-05-04T06:48:48.444Z,97434.50
2023-05-04T06:51:50.045Z,97426.41
2023-05-04T06:54:51.692Z,97435.44
2023-05-04T06:57:53.107Z,97430.44
2023-05-04T07:00:54.925Z,97435.69
2023-05-04T07:03:58.323Z,97433.91
2023-05-04T07:06:59.853Z,97438.97
2023-05-04T07:10:01.632Z,97433.06
2023-05-04T07:13:03.485Z,97424.09
2023-05-04T07:16:07.566Z,97414.56
2023-05-04T07:19:09.105Z,97423.34
2023-05-04T07:22:10.545Z,97417.22
2023-05-04T07:25:12.026Z,97416.28
2023-05-04T07:28:13.495Z,97414.09
2023-05-04T07:31:15.904Z,97413.69
2023-05-04T07:34:17.467Z,97421.75
2023-05-04T07:37:19.098Z,97417.09
2023-05-04T07:40:21.488Z,97417.13
2023-05-04T07:43:23.760Z,97416.53
2023-05-04T07:46:25.266Z,97416.34
2023-05-04T07:49:27.089Z,97413.06
2023-05-04T07:52:28.684Z,97418.41
2023-05-04T07:55:30.849Z,97414.50
2023-05-04T07:58:32.287Z,97420.59
2023-05-04T08:01:33.822Z,97424.94
2023-05-04T08:04:35.590Z,97422.88
2023-05-04T08:07:37.386Z,97418.53
2023-05-04T08:10:39.045Z,97421.25
2023-05-04T08:13:41.183Z,97440.72
2023-05-04T08:16:42.711Z,97424.13
2023-05-04T08:19:44.619Z,97434.16
2023-05-04T08:22:46.388Z,97428.00
2023-05-04T08:25:47.908Z,97421.38
2023-05-04T08:28:49.882Z,97421.25
2023-05-04T08:31:51.454Z,97433.94
2023-05-04T08:34:52.963Z,97446.06
2023-05-04T08:37:54.694Z,97426.59
2023-05-04T08:40:56.234Z,97439.69
2023-05-04T08:43:58.719Z,97438.47
2023-05-04T08:47:03.485Z,97446.63
2023-05-04T08:50:07.387Z,97436.13
2023-05-04T08:53:13.434Z,97437.50
2023-05-04T08:56:16.663Z,97439.34
2023-05-04T08:59:23.339Z,97437.00
2023-05-04T09:02:24.926Z,97442.75
2023-05-04T09:05:27.861Z,97441.44
2023-05-04T09:08:29.525Z,97438.47
2023-05-04T09:11:31.219Z,97441.28
2023-05-04T09:14:34.676Z,97442.53
2023-05-04T09:17:41.980Z,97432.59
2023-05-04T09:20:49.287Z,97436.47
2023-05-04T09:23:54.116Z,97429.16
2023-05-04T09:26:56.053Z,97433.75
2023-05-04T09:29:57.636Z,97431.81
2023-05-04T09:32:59.580Z,97433.34
2023-05-04T09:36:17.196Z,97433.97
2023-05-04T09:39:19.269Z,97435.66
2023-05-04T09:42:21.970Z,97418.84
2023-05-04T09:45:23.452Z,97420.28
2023-05-04T09:48:34.002Z,97421.91
2023-05-04T09:51:35.832Z,97409.81
2023-05-04T09:54:43.472Z,97407.72
2023-05-04T09:57:46.218Z,97405.59
2023-05-04T10:00:47.765Z,97406.56
2023-05-04T10:03:49.354Z,97389.53
2023-05-04T10:06:50.951Z,97395.59
2023-05-04T10:09:53.407Z,97398.38
2023-05-04T10:12:54.997Z,97387.19
2023-05-04T10:16:14.143Z,97384.47
2023-05-04T10:19:50.135Z,97378.47
2023-05-04T10:23:29.261Z,97385.19
2023-05-04T10:26:55.272Z,97368.88
2023-05-04T10:29:56.829Z,97363.75
2023-05-04T10:32:59.293Z,97357.63
2023-05-04T10:36:01.003Z,97356.44
2023-05-04T10:39:02.494Z,97358.22
2023-05-04T10:42:06.478Z,97362.25
2023-05-04T10:45:09.379Z,97355.69
2023-05-04T10:48:11.059Z,97344.94
2023-05-04T10:51:19.722Z,97346.09
2023-05-04T10:54:21.254Z,97341.28
2023-05-04T10:57:22.802Z,97334.25
2023-05-04T11:00:36.457Z,97336.94
2023-05-04T11:03:40.984Z,97340.38
2023-05-04T11:06:42.566Z,97336.38
2023-05-04T11:09:44.497Z,97323.00
2023-05-04T11:12:46.009Z,97328.31
2023-05-04T11:15:48.887Z,97318.72
2023-05-04T11:18:50.612Z,97319.28
2023-05-04T11:21:52.160Z,97318.19
2023-05-04T11:25:02.210Z,97320.81
2023-05-04T11:28:04.071Z,97305.38
2023-05-04T11:31:15.544Z,97301.97
2023-05-04T11:34:20.993Z,97299.63
2023-05-04T11:37:23.299Z,97297.53
2023-05-04T11:40:26.824Z,97296.56
2023-05-04T11:43:28.510Z,97301.09
2023-05-04T11:46:32.470Z,97289.78
2023-05-04T11:49:33.916Z,97288.25
2023-05-04T11:52:36.463Z,97287.50
2023-05-04T11:55:38.573Z,97276.84
2023-05-04T11:58:40.577Z,97280.97
2023-05-04T12:01:42.077Z,97277.97
2023-05-04T12:04:43.820Z,97282.81
2023-05-04T12:07:45.338Z,97275.56
2023-05-04T12:10:46.810Z,97266.22
2023-05-04T12:13:49.769Z,97262.34
2023-05-04T12:16:56.125Z,97256.75
2023-05-04T12:19:57.582Z,97266.75
2023-05-04T12:23:05.979Z,97261.13
2023-05-04T12:26:08.952Z,97256.88
2023-05-04T12:29:10.409Z,97262.22
2023-05-04T12:32:12.075Z,97260.34
2023-05-04T12:35:13.691Z,97248.81
2023-05-04T12:38:15.569Z,97246.69
2023-05-04T12:41:17.066Z,97247.88
2023-05-04T12:44:18.947Z,97249.50
2023-05-04T12:47:23.867Z,97235.19
2023-05-04T12:50:25.337Z,97234.16
2023-05-04T12:53:32.056Z,97228.19
2023-05-04T12:56:33.956Z,97232.81
2023-05-04T12:59:35.435Z,97233.34
2023-05-04T13:02:37.752Z,97233.13
2023-05-04T13:05:39.381Z,97219.59
2023-05-04T13:08:40.869Z,97217.41
2023-05-04T13:11:42.287Z,97211.72
2023-05-04T13:14:43.983Z,97202.50
2023-05-04T13:17:45.540Z,97207.06
2023-05-04T13:20:47.130Z,97203.22
2023-05-04T13:23:48.690Z,97199.31
2023-05-04T13:26:50.191Z,97186.13
2023-05-04T13:29:51.714Z,97187.97
2023-05-04T13:32:53.216Z,97180.88
2023-05-04T13:35:56.848Z,97169.84
2023-05-04T13:38:58.388Z,97168.13
2023-05-04T13:41:59.871Z,97175.63
2023-05-04T13:45:01.350Z,97171.22
2023-05-04T13:48:03.109Z,97169.09
2023-05-04T13:51:04.647Z,97167.88
2023-05-04T13:54:06.101Z,97160.94
2023-05-04T13:57:07.670Z,97151.75
2023-05-04T14:00:10.067Z,97157.19
2023-05-04T14:03:14.305Z,97156.72
2023-05-04T14:06:15.875Z,97158.25
2023-05-04T14:09:18.445Z,97153.56
2023-05-04T14:12:22.272Z,97152.66
2023-05-04T14:15:23.885Z,97147.72
2023-05-04T14:18:25.486Z,97145.31
2023-05-04T14:21:27.948Z,97137.38
2023-05-04T14:24:29.810Z,97146.50
2023-05-04T14:27:34.359Z,97131.38
2023-05-04T14:30:36.668Z,97131.75
2023-05-04T14:33:41.073Z,97134.72
2023-05-04T14:36:42.545Z,97138.78
2023-05-04T14:39:44.568Z,97138.78
2023-05-04T14:42:46.037Z,97133.84
2023-05-04T14:45:47.530Z,97126.25
2023-05-04T14:48:49.016Z,97137.06
2023-05-04T14:51:50.486Z,97133.84
2023-05-04T14:54:52.138Z,97119.66
2023-05-04T14:57:53.676Z,97114.47
2023-05-04T15:00:55.165Z,97112.72
2023-05-04T15:03:56.794Z,97115.09
2023-05-04T15:06:58.464Z,97107.22
2023-05-04T15:09:59.966Z,97109.25
2023-05-04T15:13:01.712Z,97109.94
2023-05-04T15:16:04.535Z,97110.66
2023-05-04T15:19:06.946Z,97102.66
2023-05-04T15:22:08.544Z,97106.66
2023-05-04T15:25:10.245Z,97094.13
2023-05-04T15:28:11.984Z,97095.97
2023-05-04T15:31:13.878Z,97094.09
2023-05-04T15:34:18.341Z,97101.28
2023-05-04T15:37:20.140Z,97090.59
2023-05-04T15:40:21.635Z,97090.03
2023-05-04T15:43:23.100Z,97087.53
2023-05-04T15:46:24.631Z,97087.38
2023-05-04T15:49:26.779Z,97077.03
2023-05-04T15:52:28.256Z,97085.03
2023-05-04T15:55:29.741Z,97079.94
2023-05-04T15:58:31.370Z,97081.56
2023-05-04T16:01:33.752Z,97081.22
2023-05-04T16:04:35.854Z,97077.47
2023-05-04T16:07:37.406Z,97073.44
2023-05-04T16:10:38.910Z,97086.56
2023-05-04T16:13:40.507Z,97089.19
2023-05-04T16:16:42.446Z,97086.88
2023-05-04T16:19:43.978Z,97080.25
2023-05-04T16:22:45.573Z,97074.78
2023-05-04T16:25:47.094Z,97075.97
2023-05-04T16:28:48.662Z,97066.34
2023-05-04T16:31:50.119Z,97069.94
2023-05-04T16:34:51.909Z,97065.44
2023-05-04T16:37:53.613Z,97062.06
2023-05-04T16:40:55.104Z,97065.31
2023-05-04T16:43:56.752Z,97057.97
2023-05-04T16:46:59.499Z,97068.47
2023-05-04T16:50:01.012Z,97062.97
2023-05-04T16:53:02.562Z,97071.28
2023-05-04T16:56:04.364Z,97068.63
2023-05-04T16:59:05.839Z,97068.97
2023-05-04T17:02:08.642Z,97062.97
2023-05-04T17:05:10.505Z,97067.66
2023-05-04T17:08:12.604Z,97069.09
2023-05-04T17:11:14.095Z,97071.97
2023-05-04T17:14:16.069Z,97074.31
2023-05-04T17:17:17.852Z,97074.66
2023-05-04T17:20:19.715Z,97070.22
2023-05-04T17:23:21.775Z,97078.19
2023-05-04T17:26:23.287Z,97069.41
2023-05-04T17:29:25.145Z,97073.44
2023-05-04T17:32:26.710Z,97071.63
2023-05-04T17:35:28.287Z,97072.81
2023-05-04T17:38:29.836Z,97080.72
2023-05-04T17:41:31.431Z,97081.00
2023-05-04T17:44:32.975Z,97083.56
2023-05-04T17:47:34.442Z,97082.03
2023-05-04T17:50:36.204Z,97083.06
2023-05-04T17:53:37.727Z,97088.72
2023-05-04T17:56:39.280Z,97099.53
2023-05-04T17:59:40.972Z,97098.94
2023-05-04T18:02:42.686Z,97101.78
2023-05-04T18:05:46.177Z,97101.00
2023-05-04T18:08:47.613Z,97098.50
2023-05-04T18:11:49.138Z,97116.44
2023-05-04T18:14:51.222Z,97113.00
2023-05-04T18:17:52.987Z,97114.13
2023-05-04T18:20:57.682Z,97117.56
2023-05-04T18:23:59.177Z,97127.38
2023-05-04T18:27:01.844Z,97135.28
2023-05-04T18:30:05.179Z,97137.25
2023-05-04T18:33:07.002Z,97140.78
2023-05-04T18:36:08.546Z,97144.66
2023-05-04T18:39:10.108Z,97141.44
2023-05-04T18:42:11.699Z,97150.78
2023-05-04T18:45:13.368Z,97161.56
2023-05-04T18:48:14.873Z,97166.75
2023-05-04T18:51:17.691Z,97170.94
2023-05-04T18:54:19.168Z,97176.56
2023-05-04T18:57:20.726Z,97183.50
2023-05-04T19:00:23.013Z,97182.03
2023-05-04T19:03:24.936Z,97191.59
2023-05-04T19:06:26.461Z,97185.41
2023-05-04T19:09:27.997Z,97203.31
2023-05-04T19:12:29.551Z,97208.03
2023-05-04T19:15:33.735Z,97200.59
2023-05-04T19:18:35.510Z,97208.53
2023-05-04T19:21:36.996Z,97215.50
2023-05-04T19:24:38.592Z,97213.06
2023-05-04T19:27:40.110Z,97217.72
2023-05-04T19:30:41.649Z,97227.84
2023-05-04T19:33:48.387Z,97227.72
2023-05-04T19:36:50.495Z,97234.34
2023-05-04T19:39:52.269Z,97239.59
2023-05-04T19:42:53.733Z,97242.09
2023-05-04T19:45:55.802Z,97238.03
2023-05-04T19:48:59.154Z,97247.59
2023-05-04T19:52:01.435Z,97255.63
2023-05-04T19:55:03.211Z,97253.25
2023-05-04T19:58:04.863Z,97253.16
2023-05-04T20:01:06.428Z,97258.06
2023-05-04T20:04:08.370Z,97258.50
2023-05-04T20:07:09.999Z,97264.69
2023-05-04T20:10:11.961Z,97264.00
2023-05-04T20:13:13.739Z,97270.41
2023-05-04T20:16:15.903Z,97272.78
2023-05-04T20:19:17.510Z,97273.00
2023-05-04T20:22:19.032Z,97273.53
2023-05-04T20:25:20.627Z,97268.66
2023-05-04T20:28:22.931Z,97269.53
2023-05-04T20:31:24.451Z,97276.13
2023-05-04T20:34:26.077Z,97276.00
2023-05-04T20:37:27.637Z,97273.19
2023-05-04T20:40:29.136Z,97275.09
2023-05-04T20:43:30.695Z,97278.66
2023-05-04T20:46:32.270Z,97270.97
2023-05-04T20:49:33.961Z,97278.25
2023-05-04T20:52:35.557Z,97271.97
2023-05-04T20:55:37.191Z,97274.09
2023-05-04T20:58:39.638Z,97270.88
2023-05-04T21:01:41.338Z,97275.91
2023-05-04T21:04:46.367Z,97272.06
2023-05-04T21:07:47.866Z,97285.88
2023-05-04T21:10:49.470Z,97279.38
2023-05-04T21:13:52.152Z,97285.97
2023-05-04T21:16:53.637Z,97284.31
2023-05-04T21:19:55.081Z,97272.50
2023-05-04T21:22:56.582Z,97283.22
2023-05-04T21:26:02.430Z,97284.50
2023-05-04T21:29:03.916Z,97289.44
2023-05-04T21:32:05.993Z,97278.22
2023-05-04T21:35:07.901Z,97286.44
2023-05-04T21:38:09.324Z,97287.91
2023-05-04T21:41:15.290Z,97291.00
2023-05-04T21:44:16.915Z,97299.41
2023-05-04T21:47:18.332Z,97297.16
2023-05-04T21:50:19.838Z,97299.66
2023-05-04T21:53:21.261Z,97298.66
2023-05-04T21:56:22.786Z,97294.97
2023-05-04T21:59:24.610Z,97298.88
2023-05-04T22:02:26.187Z,97301.97
2023-05-04T22:05:27.911Z,97303.19
2023-05-04T22:08:29.807Z,97296.03
2023-05-04T22:11:31.414Z,97299.09
2023-05-04T22:14:33.174Z,97301.53
2023-05-04T22:17:34.626Z,97303.78
2023-05-04T22:20:36.972Z,97301.53
2023-05-04T22:23:38.453Z,97304.81
2023-05-04T22:26:40.862Z,97307.09
2023-05-04T22:29:42.336Z,97305.66
2023-05-04T22:32:44.668Z,97306.47
2023-05-04T22:35:46.325Z,97319.41
2023-05-04T22:38:50.917Z,97320.22
2023-05-04T22:41:52.406Z,97319.81
2023-05-04T22:44:53.861Z,97325.34
2023-05-04T22:47:55.769Z,97325.53
2023-05-04T22:50:57.442Z,97328.38
2023-05-04T22:53:58.936Z,97326.72
2023-05-04T22:57:01.311Z,97332.44
2023-05-04T23:00:05.551Z,97333.66
2023-05-04T23:03:07.647Z,97340.41
2023-05-04T23:06:09.374Z,97339.16
2023-05-04T23:09:11.580Z,97336.47
2023-05-04T23:12:13.780Z,97327.09
2023-05-04T23:15:15.336Z,97332.19
2023-05-04T23:18:16.850Z,97325.81
2023-05-04T23:21:18.298Z,97337.03
2023-05-04T23:24:19.812Z,97340.69
2023-05-04T23:27:21.341Z,97334.16
2023-05-04T23:30:22.820Z,97347.63
2023-05-04T23:33:24.311Z,97338.19
2023-05-04T23:36:25.794Z,97337.56
2023-05-04T23:39:27.394Z,97330.97
2023-05-04T23:42:28.804Z,97332.59
2023-05-04T23:45:30.377Z,97324.16
2023-05-04T23:48:32.440Z,97335.97
2023-05-04T23:51:33.938Z,97328.78
2023-05-04T23:54:35.356Z,97326.50
2023-05-04T23:57:36.839Z,97324.97
